Friday, July 25, 2014, 6:37 AM EDT

KPTW, Pottstown Limerick Airport

Location: Royersford, PA, United States Lat: 40.233
Local Time: 6:37 AM EDT (10:37 GMT) Lon: -75.55
Time Zone: US/Eastern Elev: 291 ft

Show me the last for .
Show Decoded

2014-07-25 05:54 METAR KPTW 250954Z AUTO 00000KT 10SM CLR 12/10 A3001 RMK AO2 SLP158 T01220100 =
2014-07-25 04:54 METAR KPTW 250854Z AUTO 00000KT 10SM CLR 14/10 A3000 RMK AO2 SLP154 T01440100
                 51003 =
2014-07-25 03:54 METAR KPTW 250754Z AUTO 26003KT 10SM CLR 15/11 A2999 RMK AO2 SLP153 T01500106 =
2014-07-25 02:54 METAR KPTW 250654Z AUTO 26003KT 10SM CLR 16/11 A3000 RMK AO2 SLP156 T01610106 =
2014-07-25 01:54 METAR KPTW 250554Z AUTO 26003KT 10SM CLR 17/11 A2999 RMK AO2 SLP151 T01670106
                 10228 20167 51010 =
2014-07-25 00:54 METAR KPTW 250454Z AUTO 34003KT 10SM CLR 17/11 A2998 RMK AO2 SLP147 T01720106
                 402670172 =
2014-07-24 23:54 METAR KPTW 250354Z AUTO 35004KT 10SM CLR 18/11 A2997 RMK AO2 SLP144 T01830111 =
2014-07-24 22:54 METAR KPTW 250254Z AUTO 36005KT 10SM CLR 19/11 A2996 RMK AO2 SLP141 T01890111
                 53012 =
2014-07-24 21:54 METAR KPTW 250154Z AUTO 36005KT 10SM CLR 21/12 A2995 RMK AO2 SLP137 T02060117 =
2014-07-24 20:54 METAR KPTW 250054Z AUTO 35006KT 10SM CLR 22/12 A2993 RMK AO2 SLP130 T02170122 =
2014-07-24 19:54 METAR KPTW 242354Z AUTO 34005KT 10SM CLR 23/12 A2992 RMK AO2 SLP127 T02280122
                 10267 20228 53009 =
2014-07-24 17:54 METAR KPTW 242154Z AUTO 36009KT 10SM CLR 25/12 A2989 RMK AO2 SLP115 T02500117 =
2014-07-24 16:54 METAR KPTW 242054Z AUTO 34008KT 10SM BKN065 25/13 A2989 RMK AO2 SLP118 T02500128
                 55004 =
2014-07-24 15:54 METAR KPTW 241954Z AUTO 01008KT 10SM FEW060 27/13 A2989 RMK AO2 SLP117 T02670133
                 =
2014-07-24 14:54 METAR KPTW 241854Z AUTO 35007KT 10SM CLR 25/13 A2990 RMK AO2 SLP120 T02500128 =
2014-07-24 13:54 METAR KPTW 241754Z AUTO 35011KT 10SM SCT055 24/14 A2990 RMK AO2 SLP121 T02440139
                 10261 20206 58009 =
2014-07-24 12:54 METAR KPTW 241654Z AUTO 35011G16KT 10SM FEW042 SCT055 26/15 A2992 RMK AO2 SLP128
                 T02560150 =
2014-07-24 11:54 METAR KPTW 241554Z AUTO 34008KT 10SM CLR 24/16 A2993 RMK AO2 SLP131 T02390156 =
2014-07-24 09:54 METAR KPTW 241354Z AUTO 35009KT 10SM CLR 22/15 A2992 RMK AO2 SLP127 T02170150 =
2014-07-24 06:54 METAR KPTW 241054Z AUTO 32004KT 10SM SCT048 OVC080 19/17 A2991 RMK AO2 SLP123
                 T01940172 =

Support USWX by starting your Amazon purchase here.